ADDS METAR Data INFO
IDs: Format: Raw Decoded Include TAF

Data at: 1304 UTC 19 Jul 2018

KLCQ 191255Z AUTO 00000KT 10SM SCT006 SCT048 OVC060 24/24 A2997 RMK AO2 LTG DSNT SW P0014
KLCQ 191235Z AUTO 16004KT 7SM -RA SCT006 BKN060 OVC070 24/23 A2996 RMK AO2 P0013
KLCQ 191215Z AUTO 00000KT 3SM RA SCT005 BKN013 OVC048 24/23 A2996 RMK AO2 LTG DSNT S AND SW P0013
KLCQ 191155Z AUTO 21004KT 5SM +RA SCT005 BKN014 OVC028 23/23 A2996 RMK AO2 LTG DSNT SW P0003
KLCQ 191135Z AUTO 00000KT 7SM -RA SCT003 BKN022 OVC042 23/23 A2996 RMK AO2 LTG DSNT SW
KLCQ 191115Z AUTO 00000KT 7SM BKN003 OVC022 23/23 A2995 RMK AO2 LTG DSNT SW
KLCQ 191055Z AUTO 00000KT 7SM BKN003 BKN020 BKN029 23/23 A2994 RMK AO2 LTG DSNT SW
KLCQ 191035Z AUTO 14003KT 7SM SCT003 BKN020 BKN027 23/23 A2994 RMK AO2 LTG DSNT SW
KLCQ 191015Z AUTO 00000KT 10SM SCT022 23/23 A2994 RMK AO2 LTG DSNT SW
KLCQ 190955Z AUTO 00000KT 10SM CLR 23/23 A2994 RMK AO2
KLCQ 190935Z AUTO 15004KT 10SM SCT050 23/23 A2993 RMK AO2
KLCQ 190915Z AUTO 00000KT 10SM BKN050 23/23 A2993 RMK AO2
KLCQ 190855Z AUTO 00000KT 10SM SCT034 SCT047 23/23 A2993 RMK AO2
KLCQ 190835Z AUTO 00000KT 10SM SCT027 SCT047 SCT060 23/23 A2992 RMK AO2
KLCQ 190815Z AUTO 00000KT 10SM SCT035 SCT060 23/22 A2992 RMK AO2
KLCQ 190755Z AUTO 00000KT 10SM SCT024 OVC033 23/23 A2992 RMK AO2 LTG DSNT SW
KLCQ 190735Z AUTO 00000KT 10SM BKN024 BKN029 BKN034 23/23 A2993 RMK AO2 LTG DSNT SW
KLCQ 190715Z AUTO 14003KT 10SM CLR 23/23 A2993 RMK AO2 LTG DSNT SW
KLCQ 190655Z AUTO 13003KT 10SM CLR 23/23 A2993 RMK AO2
KLCQ 190635Z AUTO 15003KT 10SM CLR 23/23 A2994 RMK AO2
KLCQ 190615Z AUTO 16003KT 10SM CLR 23/23 A2995 RMK AO2 LTG DSNT SW
KLCQ 190555Z AUTO 00000KT 10SM CLR 23/23 A2996 RMK AO2 LTG DSNT SW
KLCQ 190535Z AUTO 14003KT 10SM CLR 24/23 A2996 RMK AO2
KLCQ 190515Z AUTO 00000KT 10SM CLR 24/23 A2997 RMK AO2
KLCQ 190455Z AUTO 20003KT 10SM CLR 25/23 A2997 RMK AO2
KLCQ 190435Z AUTO 22004KT 10SM CLR 25/23 A2996 RMK AO2
KLCQ 190415Z AUTO 21005KT 10SM CLR 25/23 A2996 RMK AO2
KLCQ 190355Z AUTO 22005KT 10SM CLR 25/23 A2996 RMK AO2
KLCQ 190335Z AUTO 20003KT 10SM CLR 25/23 A2996 RMK AO2
KLCQ 190315Z AUTO 20003KT 10SM CLR 25/23 A2997 RMK AO2
KLCQ 190255Z AUTO 21003KT 10SM CLR 25/22 A2997 RMK AO2
KLCQ 190235Z AUTO 00000KT 10SM CLR 26/23 A2997 RMK AO2
KLCQ 190215Z AUTO 24004KT 10SM CLR 26/23 A2996 RMK AO2
KLCQ 190155Z AUTO 24005KT 10SM CLR 26/23 A2996 RMK AO2
KLCQ 190135Z AUTO 26004KT 10SM CLR 26/23 A2996 RMK AO2 LTG DSNT N
KLCQ 190115Z AUTO 24007KT 10SM CLR 27/23 A2995 RMK AO2
KLCQ 190055Z AUTO 21004KT 10SM SCT027 27/23 A2994 RMK AO2 LTG DSNT N
KLCQ 190035Z AUTO 22003KT 10SM SCT029 27/23 A2993 RMK AO2
KLCQ 190015Z AUTO 21005KT 10SM CLR 28/23 A2993 RMK AO2
KLCQ 182355Z AUTO 23006KT 10SM CLR 28/23 A2992 RMK AO2
KLCQ 182335Z AUTO 24008KT 10SM CLR 28/23 A2992 RMK AO2
KLCQ 182315Z AUTO 22007KT 10SM SCT029 SCT034 28/23 A2993 RMK AO2
KLCQ 182255Z AUTO 20005KT 10SM BKN033 28/23 A2994 RMK AO2
KLCQ 182235Z AUTO 12003KT 10SM SCT035 26/24 A2994 RMK AO2
KLCQ 182215Z AUTO 16004KT 10SM VCTS SCT030 SCT037 BKN065 28/24 A2994 RMK AO2
KLCQ 182155Z AUTO 16007KT 10SM BKN028 OVC035 27/24 A2995 RMK AO2 LTG DSNT SE
KLCQ 182135Z AUTO 14011KT 10SM SCT029 SCT035 BKN041 29/24 A2994 RMK AO2 LTG DSNT SE AND NW
KLCQ 182115Z AUTO 00000KT 10SM VCTS CLR 28/25 A2995 RMK AO2 LTG DSNT SE AND NW
KLCQ 182055Z AUTO 13004KT 10SM -RA SCT033 SCT065 SCT110 27/24 A2996 RMK AO2 LTG DSNT E THRU S
KLCQ 182035Z AUTO 06004KT 10SM VCTS SCT100 BKN120 26/24 A2996 RMK AO2 LTG DSNT N THRU SE
KLCQ 182015Z AUTO 01004KT 10SM TS SCT030 BKN090 27/25 A2997 RMK AO2 LTG DSNT ALQS
KLCQ 181955Z AUTO 00000KT 10SM VCTS BKN030 BKN044 OVC060 26/24 A2997 RMK AO2 LTG DSNT ALQS
KLCQ 181935Z AUTO 23003KT 10SM -VCTSRA SCT032 SCT045 OVC050 27/23 A2997 RMK AO2 LTG DSNT E THRU S
KLCQ 181910Z AUTO 29007KT 10SM SCT043 SCT050 31/23 A2997 RMK AO2 LTG DSNT NE AND E
KLCQ 181855Z AUTO 26006KT 10SM CLR 30/23 A2997 RMK AO2 LTG DSNT NE
KLCQ 181835Z AUTO 27007KT 10SM CLR 30/23 A2997 RMK AO2 LTG DSNT NE AND E
KLCQ 181815Z AUTO 29010KT 10SM SCT033 SCT046 SCT060 29/25 A2999 RMK AO2 LTG DSNT E
KLCQ 181755Z AUTO 27011KT 10SM SCT032 SCT060 31/23 A2998 RMK AO2
KLCQ 181735Z AUTO 25010G15KT 10SM SCT037 31/23 A2999 RMK AO2 LTG DSNT E
KLCQ 181715Z AUTO 24008KT 10SM SCT037 30/22 A3000 RMK AO2 LTG DSNT SE
KLCQ 181650Z AUTO 25009G15KT 10SM VCTS SCT033 SCT039 31/23 A3001 RMK AO2 LTG DSNT SE AND S
KLCQ 181635Z AUTO 25013G17KT 10SM BKN033 BKN039 30/23 A3001 RMK AO2 LTG DSNT S
KLCQ 181615Z AUTO 26008KT 10SM SCT030 SCT035 SCT043 31/23 A3001 RMK AO2 LTG DSNT SE THRU W
KLCQ 181555Z AUTO 24004KT 10SM SCT026 SCT031 SCT039 30/23 A3001 RMK AO2 LTG DSNT SE AND SW
KLCQ 181535Z AUTO 25006KT 10SM BKN026 BKN037 BKN044 30/23 A3002 RMK AO2 LTG DSNT E THRU SW
KLCQ 181515Z AUTO 27007KT 10SM SCT024 SCT032 SCT042 30/24 A3002 RMK AO2 LTG DSNT S
KLCQ 181455Z AUTO 22006KT 10SM SCT020 SCT031 29/24 A3002 RMK AO2
KLCQ 181435Z AUTO 26005KT 10SM SCT020 SCT032 29/25 A3002 RMK AO2 LTG DSNT S
KLCQ 181410Z AUTO 25006KT 10SM BKN018 BKN032 28/24 A3002 RMK AO2
KLCQ 181355Z AUTO 25004KT 10SM SCT016 BKN025 28/24 A3002 RMK AO2
KLCQ 181335Z AUTO 25005KT 10SM SCT014 BKN025 BKN120 27/24 A3003 RMK AO2
KLCQ 181315Z AUTO 26004KT 10SM SCT023 SCT120 27/24 A3003 RMK AO2
KLCQ 181255Z AUTO 23004KT 10SM SCT038 SCT050 26/24 A3003 RMK AO2
KLCQ 181235Z AUTO 26004KT 10SM SCT036 BKN050 25/24 A3003 RMK AO2
KLCQ 181210Z AUTO 23003KT 10SM SCT050 25/24 A3002 RMK AO2
KLCQ 181155Z AUTO 25004KT 10SM SCT024 BKN050 25/24 A3002 RMK AO2
KLCQ 181135Z AUTO 00000KT 7SM BKN024 BKN050 24/23 A3002 RMK AO2 LTG DSNT NE
KLCQ 181115Z AUTO 00000KT 7SM CLR 23/23 A3001 RMK AO2
KLCQ 181055Z AUTO 00000KT 7SM CLR 23/23 A3000 RMK AO2
KLCQ 181035Z AUTO 00000KT 7SM CLR 23/23 A3000 RMK AO2
KLCQ 181015Z AUTO 00000KT 10SM CLR 23/23 A3000 RMK AO2
KLCQ 180955Z AUTO 00000KT 10SM SCT025 SCT033 SCT042 23/23 A2999 RMK AO2
KLCQ 180935Z AUTO 00000KT 10SM SCT021 SCT025 SCT042 23/23 A2999 RMK AO2
KLCQ 180915Z AUTO 19003KT 10SM CLR 23/23 A2999 RMK AO2
KLCQ 180855Z AUTO 00000KT 10SM CLR 23/23 A2999 RMK AO2
KLCQ 180835Z AUTO 00000KT 10SM CLR 23/23 A3000 RMK AO2
KLCQ 180815Z AUTO 00000KT 10SM CLR 24/23 A3000 RMK AO2
KLCQ 180755Z AUTO 00000KT 10SM CLR 24/23 A3000 RMK AO2
KLCQ 180735Z AUTO 19004KT 10SM CLR 24/23 A3000 RMK AO2
KLCQ 180715Z AUTO 21003KT 10SM CLR 24/23 A3000 RMK AO2
KLCQ 180655Z AUTO 23003KT 10SM CLR 24/24 A3001 RMK AO2
KLCQ 180635Z AUTO 00000KT 10SM CLR 25/24 A3001 RMK AO2 LTG DSNT S
KLCQ 180610Z AUTO 00000KT 10SM CLR 25/24 A3002 RMK AO2
KLCQ 180555Z AUTO 00000KT 10SM SCT025 25/24 A3002 RMK AO2
KLCQ 180535Z AUTO 00000KT 10SM SCT025 SCT033 25/24 A3002 RMK AO2
KLCQ 180515Z AUTO 21003KT 10SM SCT025 SCT033 25/24 A3002 RMK AO2
KLCQ 180500Z AUTO 21003KT 10SM CLR 25/24 A3003 RMK AO2
KLCQ 180435Z AUTO 22003KT 10SM CLR 25/25 A3003 RMK AO2
KLCQ 180415Z AUTO 22003KT 7SM SCT002 25/25 A3003 RMK AO2
KLCQ 180355Z AUTO 19004KT 7SM SCT002 25/25 A3003 RMK AO2
KLCQ 180330Z AUTO 19003KT 10SM CLR 25/25 A3004 RMK AO2
KLCQ 180315Z AUTO 20003KT 10SM CLR 25/25 A3003 RMK AO2
KLCQ 180255Z AUTO 23003KT 10SM CLR 25/25 A3003 RMK AO2
KLCQ 180235Z AUTO 27003KT 10SM CLR 25/25 A3003 RMK AO2
KLCQ 180215Z AUTO 22004KT 10SM CLR 25/24 A3002 RMK AO2
KLCQ 180155Z AUTO 21003KT 10SM CLR 25/25 A3003 RMK AO2
KLCQ 180130Z AUTO 00000KT 10SM CLR 25/25 A3002 RMK AO2
KLCQ 180115Z AUTO 23003KT 10SM SCT006 SCT023 SCT032 25/25 A3003 RMK AO2